Terminal Aerodrome Forecast
Issued by NWS Wilmington, NC

Home | Current Version | Previous Version | Text Only | Print | Product List | Glossary On
Versions: 1 2 3 4 5 6 7 8 9 10 11 12 13 14 15 16
138
FTUS42 KILM 271120
TAFMYR
TAF
KMYR 271120Z 2712/2812 24007KT P6SM FEW180
     FM271700 21012KT P6SM SKC
     FM272000 21013G21KT P6SM SKC
     FM280100 23009KT P6SM FEW150
     FM280700 26005KT P6SM FEW070=

USA.gov is the U.S. government's official web portal to all federal, state and local government web resources and services.